Time;durP1;ratioP1;P1;durP2;ratioP2;P2;SDS_P1;SDS_P2;PMS_P1;PMS_P2;Temp;Humidity;BMP_temperature;BMP_pressure;BME280_temperature;BME280_humidity;BME280_pressure;Samples;Min_cycle;Max_cycle;Signal;HPM_P1;HPM_P2
2022/05/06 00:01:07;;;;;;;11.70;10.02;;;15.70;56.60;;;;;;5053385;28;20045;-62
2022/05/06 00:03:33;;;;;;;13.20;10.63;;;15.60;56.00;;;;;;5052498;28;20493;-61
2022/05/06 00:05:58;;;;;;;11.98;10.60;;;15.70;55.20;;;;;;5068542;28;20025;-62
2022/05/06 00:08:25;;;;;;;13.07;11.68;;;15.70;55.90;;;;;;5050169;28;20048;-62
2022/05/06 00:10:51;;;;;;;14.15;11.50;;;15.70;56.30;;;;;;5051549;28;20021;-62
2022/05/06 00:13:16;;;;;;;11.18;10.07;;;15.60;55.40;;;;;;5052151;28;20102;-62
2022/05/06 00:15:42;;;;;;;11.57;10.45;;;15.70;54.30;;;;;;5051976;28;20041;-62
2022/05/06 00:18:07;;;;;;;11.35;9.98;;;15.70;54.20;;;;;;5051275;28;20033;-62
2022/05/06 00:20:33;;;;;;;11.13;10.02;;;15.60;53.60;;;;;;5052161;28;20166;-61
2022/05/06 00:27:02;;;;;;;11.75;10.55;;;15.60;52.50;;;;;;5050116;28;20035;-62
2022/05/06 00:29:27;;;;;;;9.98;8.98;;;15.60;65.40;;;;;;5051992;28;20036;-62
2022/05/06 00:31:53;;;;;;;11.50;10.40;;;15.50;54.70;;;;;;5052855;28;20017;-62
2022/05/06 00:34:19;;;;;;;11.00;9.77;;;15.60;53.70;;;;;;5051714;28;20051;-62
2022/05/06 00:36:45;;;;;;;9.63;8.73;;;15.60;52.80;;;;;;5052661;28;20029;-63
2022/05/06 00:39:11;;;;;;;8.73;7.88;;;15.50;53.10;;;;;;5051605;28;20024;-62
2022/05/06 00:41:37;;;;;;;11.27;9.45;;;15.50;53.00;;;;;;5052461;28;20543;-62
2022/05/06 00:44:06;;;;;;;9.80;8.80;;;15.50;53.20;;;;;;5051923;28;20029;-62
2022/05/06 00:46:33;;;;;;;9.85;8.85;;;15.60;53.20;;;;;;5050748;28;20398;-62
2022/05/06 00:49:00;;;;;;;9.77;8.77;;;15.60;53.00;;;;;;5050078;28;20064;-62
2022/05/06 00:51:26;;;;;;;9.10;8.18;;;15.50;53.30;;;;;;5052117;28;20410;-62
2022/05/06 00:53:55;;;;;;;9.65;8.75;;;15.50;52.90;;;;;;5051983;28;20036;-62
2022/05/06 00:56:24;;;;;;;9.50;8.57;;;15.50;53.40;;;;;;5050370;28;20025;-61
2022/05/06 00:58:51;;;;;;;9.45;8.45;;;15.50;53.20;;;;;;5042482;28;20024;-62
2022/05/06 01:01:17;;;;;;;8.50;7.68;;;15.60;53.20;;;;;;5052380;28;20020;-62
2022/05/06 01:03:44;;;;;;;9.65;8.68;;;15.50;53.10;;;;;;5051556;28;20466;-62
2022/05/06 01:06:13;;;;;;;10.07;8.98;;;15.40;53.60;;;;;;5052362;28;20032;-62
2022/05/06 01:08:41;;;;;;;9.13;8.25;;;15.50;52.00;;;;;;5050877;28;20024;-62
2022/05/06 01:11:07;;;;;;;9.73;8.73;;;15.30;53.10;;;;;;5052261;28;20032;-62
2022/05/06 01:13:41;;;;;;;10.35;8.27;;;15.10;55.20;;;;;;5051522;28;20074;-62
2022/05/06 01:16:07;;;;;;;11.85;8.88;;;15.10;59.10;;;;;;5048500;28;20486;-62
2022/05/06 01:18:33;;;;;;;10.70;8.18;;;15.20;55.80;;;;;;5049120;28;20163;-62
2022/05/06 01:21:02;;;;;;;10.85;8.65;;;15.00;56.60;;;;;;5047629;28;20040;-62
2022/05/06 01:23:27;;;;;;;8.80;7.82;;;15.20;56.80;;;;;;5049676;28;20067;-62
2022/05/06 01:25:53;;;;;;;9.88;8.57;;;15.10;57.60;;;;;;5050491;28;20025;-62
2022/05/06 01:28:22;;;;;;;9.68;8.68;;;15.20;64.30;;;;;;5043872;28;20078;-62
2022/05/06 01:30:49;;;;;;;9.15;8.25;;;15.30;65.50;;;;;;5042934;28;20116;-62
2022/05/06 01:33:21;;;;;;;9.95;8.95;;;15.20;63.20;;;;;;5049156;28;20067;-63
2022/05/06 01:35:51;;;;;;;10.52;9.43;;;15.20;63.10;;;;;;5048667;28;20091;-63
2022/05/06 01:38:21;;;;;;;11.70;10.38;;;15.10;68.10;;;;;;5051470;28;20049;-63
2022/05/06 01:40:52;;;;;;;12.10;10.68;;;15.10;68.50;;;;;;5047988;28;20102;-62
2022/05/06 01:43:20;;;;;;;11.90;10.45;;;15.00;68.40;;;;;;5048220;28;20137;-63
2022/05/06 01:45:48;;;;;;;11.10;10.07;;;15.00;65.20;;;;;;5050506;28;20064;-63
2022/05/06 01:48:16;;;;;;;11.23;10.02;;;15.00;66.40;;;;;;5051464;28;20029;-63
2022/05/06 01:50:43;;;;;;;11.82;10.52;;;15.00;61.90;;;;;;5049565;28;20037;-63
2022/05/06 01:53:09;;;;;;;10.57;9.57;;;15.00;62.30;;;;;;5051374;28;20021;-63
2022/05/06 01:55:36;;;;;;;10.90;9.40;;;15.00;59.90;;;;;;5050758;28;20044;-63
2022/05/06 01:58:01;;;;;;;10.10;9.05;;;14.90;61.60;;;;;;5052466;28;20025;-63
2022/05/06 02:00:27;;;;;;;11.38;9.27;;;15.00;61.00;;;;;;5050545;28;20087;-62
2022/05/06 02:02:56;;;;;;;10.55;9.55;;;15.10;60.90;;;;;;5051325;28;20040;-63
2022/05/06 02:05:22;;;;;;;10.60;9.50;;;15.20;60.10;;;;;;5050967;28;20391;-62
2022/05/06 02:07:50;;;;;;;10.10;9.05;;;15.20;59.80;;;;;;5051796;28;20026;-62
2022/05/06 02:10:17;;;;;;;10.43;9.40;;;15.30;58.40;;;;;;5051185;28;20075;-62
2022/05/06 02:12:47;;;;;;;9.65;8.65;;;15.40;57.70;;;;;;5052261;28;20025;-62
2022/05/06 02:15:14;;;;;;;11.30;9.10;;;15.40;57.30;;;;;;5050883;28;20044;-63
2022/05/06 02:17:41;;;;;;;10.35;9.30;;;15.40;57.30;;;;;;5051569;28;20017;-63
2022/05/06 02:20:08;;;;;;;11.23;10.13;;;15.40;57.10;;;;;;5049142;28;20025;-63
2022/05/06 02:22:35;;;;;;;12.50;9.77;;;15.40;56.90;;;;;;5051823;28;20029;-62
2022/05/06 02:25:02;;;;;;;11.05;9.88;;;15.40;57.20;;;;;;5051181;28;20493;-62
2022/05/06 02:27:27;;;;;;;13.02;10.65;;;15.40;57.70;;;;;;5051471;28;20497;-62
2022/05/06 02:35:21;;;;;;;10.60;9.60;;;15.20;59.50;;;;;;5044743;28;20087;-63
2022/05/06 02:37:47;;;;;;;10.15;9.15;;;15.20;59.30;;;;;;5057949;28;20056;-64
2022/05/06 02:40:13;;;;;;;9.43;8.52;;;15.10;59.60;;;;;;5047466;28;20025;-64
2022/05/06 02:42:39;;;;;;;12.02;10.02;;;15.30;57.50;;;;;;5055016;28;20048;-63
2022/05/06 02:45:05;;;;;;;12.90;10.32;;;15.20;58.90;;;;;;5054232;28;20486;-64
2022/05/06 02:47:31;;;;;;;11.43;10.32;;;15.30;58.50;;;;;;5049419;28;20037;-63
2022/05/06 02:49:56;;;;;;;11.15;10.05;;;15.30;60.70;;;;;;5053661;28;20037;-64
2022/05/06 02:52:23;;;;;;;12.35;11.05;;;15.30;60.80;;;;;;5052551;28;20025;-63
2022/05/06 02:54:49;;;;;;;12.00;10.90;;;15.20;59.70;;;;;;5053412;28;20527;-63
2022/05/06 02:57:15;;;;;;;11.27;10.18;;;15.20;60.00;;;;;;5054218;28;20029;-64
2022/05/06 02:59:41;;;;;;;10.70;9.52;;;15.20;60.30;;;;;;5053909;28;20021;-63
2022/05/06 03:02:07;;;;;;;10.57;9.50;;;15.20;60.30;;;;;;5054788;28;20032;-63
2022/05/06 03:04:33;;;;;;;10.52;9.52;;;15.10;60.50;;;;;;5053963;28;20391;-64
2022/05/06 03:07:00;;;;;;;9.82;8.68;;;15.20;60.00;;;;;;5053832;28;20021;-64
2022/05/06 03:09:25;;;;;;;11.02;9.93;;;15.20;59.50;;;;;;5053848;28;20032;-63
2022/05/06 03:11:52;;;;;;;12.10;10.40;;;15.30;59.00;;;;;;5068963;28;20091;-64
2022/05/06 03:14:17;;;;;;;10.80;9.45;;;15.30;58.60;;;;;;5053479;28;20539;-63
2022/05/06 03:16:43;;;;;;;11.48;9.85;;;15.30;58.00;;;;;;5053543;28;20029;-63
2022/05/06 03:19:09;;;;;;;11.68;10.48;;;15.30;58.70;;;;;;5053676;28;20029;-63
2022/05/06 03:21:35;;;;;;;11.80;10.57;;;15.30;58.60;;;;;;5053854;28;20033;-63
2022/05/06 03:24:01;;;;;;;13.40;10.55;;;15.40;58.70;;;;;;5053617;28;20033;-63
2022/05/06 03:26:27;;;;;;;12.13;10.95;;;15.40;58.30;;;;;;5053708;28;20048;-63
2022/05/06 03:28:54;;;;;;;12.95;11.73;;;15.40;58.10;;;;;;5053224;28;20382;-63
2022/05/06 03:31:20;;;;;;;12.20;10.98;;;15.30;58.40;;;;;;5054432;28;20486;-63
2022/05/06 03:33:47;;;;;;;13.52;12.13;;;15.30;57.90;;;;;;5054061;28;20116;-63
2022/05/06 03:36:13;;;;;;;12.73;11.35;;;15.30;57.90;;;;;;5051872;28;20143;-63
2022/05/06 03:38:38;;;;;;;12.90;11.55;;;15.30;58.00;;;;;;5053202;28;20115;-64
2022/05/06 03:41:04;;;;;;;13.63;11.57;;;15.40;57.70;;;;;;5053234;28;20439;-63
2022/05/06 03:43:29;;;;;;;14.00;12.60;;;15.40;57.40;;;;;;5045757;28;20043;-63
2022/05/06 03:45:55;;;;;;;14.00;12.50;;;15.40;57.70;;;;;;5048424;28;20040;-63
2022/05/06 03:48:24;;;;;;;14.20;12.75;;;15.40;57.60;;;;;;5045027;28;20034;-63
2022/05/06 03:53:38;;;;;;;15.32;12.98;;;15.40;57.00;;;;;;5052358;28;20396;-63
2022/05/06 03:56:05;;;;;;;16.95;15.15;;;15.30;59.70;;;;;;5051702;28;20037;-63
2022/05/06 03:58:32;;;;;;;17.35;14.18;;;15.30;59.70;;;;;;5052949;28;20029;-63
2022/05/06 04:00:58;;;;;;;16.38;14.43;;;15.30;59.60;;;;;;5055325;28;20474;-64
2022/05/06 04:03:23;;;;;;;16.98;15.20;;;15.30;59.60;;;;;;5052373;28;20072;-64
2022/05/06 04:05:49;;;;;;;19.02;16.00;;;15.40;59.50;;;;;;5052291;28;20029;-63
2022/05/06 04:08:15;;;;;;;18.20;16.30;;;15.40;58.70;;;;;;5050773;28;20033;-63
2022/05/06 04:10:40;;;;;;;17.88;15.10;;;15.40;57.60;;;;;;5050314;28;20032;-63
2022/05/06 04:13:06;;;;;;;16.88;14.80;;;15.40;57.90;;;;;;5052673;28;20040;-63
2022/05/06 04:15:35;;;;;;;18.48;16.50;;;15.40;57.70;;;;;;5051546;28;20477;-64
2022/05/06 04:18:01;;;;;;;23.73;18.60;;;15.40;57.50;;;;;;5052403;28;20021;-63
2022/05/06 04:23:29;;;;;;;16.10;14.30;;;15.50;57.00;;;;;;5053392;28;20098;-63
2022/05/06 04:26:03;;;;;;;17.90;14.93;;;15.40;56.30;;;;;;5052134;28;20025;-63
2022/05/06 04:28:29;;;;;;;16.88;14.50;;;15.40;56.10;;;;;;5053044;28;20645;-62
2022/05/06 04:30:55;;;;;;;16.40;13.65;;;15.40;56.80;;;;;;5051883;28;20512;-62
2022/05/06 04:33:25;;;;;;;17.52;13.88;;;15.50;56.60;;;;;;5052921;28;20029;-62
2022/05/06 04:35:51;;;;;;;15.23;13.63;;;15.40;56.80;;;;;;5040060;28;20033;-62
2022/05/06 04:38:17;;;;;;;16.17;14.48;;;15.40;56.30;;;;;;5033119;28;20021;-62
2022/05/06 04:40:43;;;;;;;16.15;14.05;;;15.40;56.30;;;;;;5043066;28;20059;-65
2022/05/06 04:43:10;;;;;;;16.42;13.32;;;15.40;55.90;;;;;;5052732;28;20036;-62
2022/05/06 04:45:43;;;;;;;15.93;14.18;;;15.40;55.60;;;;;;5047760;28;20128;-62
2022/05/06 04:48:11;;;;;;;17.25;14.75;;;15.50;53.70;;;;;;5052794;28;20017;-62
2022/05/06 04:50:40;;;;;;;15.20;13.60;;;15.50;55.10;;;;;;5060722;28;20032;-62
2022/05/06 04:53:08;;;;;;;16.15;13.60;;;15.40;55.40;;;;;;5052974;28;20432;-62
2022/05/06 04:55:38;;;;;;;16.58;13.50;;;15.50;54.80;;;;;;5051000;28;20406;-62
2022/05/06 04:58:05;;;;;;;14.20;12.77;;;15.50;55.20;;;;;;5067949;28;20029;-62
2022/05/06 05:00:32;;;;;;;13.35;11.98;;;15.60;54.60;;;;;;5051728;28;20037;-62
2022/05/06 05:02:59;;;;;;;13.07;11.68;;;15.60;55.30;;;;;;5050804;28;20106;-62
2022/05/06 05:05:24;;;;;;;11.60;10.50;;;15.50;55.40;;;;;;5051486;28;20048;-62
2022/05/06 05:07:51;;;;;;;12.52;10.65;;;15.50;55.40;;;;;;5052040;28;20139;-62
2022/05/06 05:10:17;;;;;;;13.07;11.35;;;15.50;55.30;;;;;;5050813;28;20040;-62
2022/05/06 05:12:43;;;;;;;12.20;10.40;;;15.60;54.80;;;;;;5052718;28;20040;-62
2022/05/06 05:15:10;;;;;;;12.73;10.98;;;15.60;54.70;;;;;;5051069;28;20550;-62
2022/05/06 05:17:35;;;;;;;11.88;10.77;;;15.70;54.20;;;;;;5051271;28;20052;-62
2022/05/06 05:20:01;;;;;;;10.80;9.80;;;15.70;54.50;;;;;;5051249;28;20056;-62
2022/05/06 05:22:28;;;;;;;10.25;9.18;;;15.70;54.50;;;;;;5052479;28;20391;-62
2022/05/06 05:24:54;;;;;;;12.82;11.52;;;15.70;53.60;;;;;;5051326;28;20021;-61
2022/05/06 05:27:20;;;;;;;12.43;10.60;;;15.80;54.50;;;;;;5051878;28;20451;-63
2022/05/06 05:29:45;;;;;;;10.68;9.57;;;15.80;54.00;;;;;;5051317;28;20063;-62
2022/05/06 05:32:11;;;;;;;11.23;9.10;;;15.70;54.00;;;;;;5051872;28;20025;-62
2022/05/06 05:34:37;;;;;;;9.88;8.73;;;15.70;54.30;;;;;;5052076;28;20037;-62
2022/05/06 05:37:03;;;;;;;11.00;9.20;;;15.70;53.60;;;;;;5049589;28;20104;-63
2022/05/06 05:39:31;;;;;;;12.18;9.77;;;15.70;53.20;;;;;;5052121;28;20055;-62
2022/05/06 05:41:57;;;;;;;10.50;9.50;;;15.70;53.90;;;;;;5049539;28;20028;-62
2022/05/06 05:49:51;;;;;;;11.30;9.95;;;15.80;53.60;;;;;;5050951;28;20063;-63
2022/05/06 05:52:17;;;;;;;13.07;10.63;;;15.80;53.40;;;;;;5067343;28;20025;-63
2022/05/06 05:54:42;;;;;;;10.48;8.63;;;15.80;54.60;;;;;;5051077;28;20065;-62
2022/05/06 05:57:08;;;;;;;10.40;9.40;;;15.80;55.90;;;;;;5051360;28;20170;-63
2022/05/06 05:59:34;;;;;;;10.80;9.75;;;15.80;56.20;;;;;;5047734;28;21990;-62
2022/05/06 06:02:03;;;;;;;11.63;10.43;;;15.80;56.50;;;;;;5050118;28;20103;-62
2022/05/06 06:04:29;;;;;;;11.43;10.23;;;15.70;56.30;;;;;;5051771;28;20029;-63
2022/05/06 06:06:55;;;;;;;10.75;9.68;;;15.60;58.30;;;;;;5052571;28;20428;-63
2022/05/06 06:09:22;;;;;;;10.13;9.15;;;15.60;57.70;;;;;;5046554;28;20082;-63
2022/05/06 06:11:49;;;;;;;9.73;8.82;;;15.70;56.70;;;;;;5053715;28;20492;-62
2022/05/06 06:14:15;;;;;;;7.53;6.82;;;15.70;55.50;;;;;;5055632;28;20036;-63
2022/05/06 06:16:41;;;;;;;5.05;4.60;;;15.70;55.10;;;;;;5054817;28;20033;-62
2022/05/06 06:19:07;;;;;;;8.10;6.90;;;15.70;54.60;;;;;;5053508;28;20178;-63
2022/05/06 06:21:33;;;;;;;9.02;8.13;;;15.70;53.60;;;;;;5053663;28;20036;-63
2022/05/06 06:23:59;;;;;;;8.25;7.18;;;15.80;54.90;;;;;;5053982;28;20481;-63
2022/05/06 06:26:24;;;;;;;7.28;6.65;;;15.80;54.50;;;;;;5053697;28;20033;-62
2022/05/06 06:28:50;;;;;;;7.57;6.88;;;15.70;54.00;;;;;;5053287;28;20072;-63
2022/05/06 06:31:16;;;;;;;7.70;6.82;;;15.80;53.40;;;;;;5052729;28;20029;-63
2022/05/06 06:33:42;;;;;;;9.43;7.85;;;15.80;52.90;;;;;;5053709;28;20031;-63
2022/05/06 06:36:09;;;;;;;8.63;7.82;;;15.80;52.50;;;;;;5053742;28;20379;-63
2022/05/06 06:38:35;;;;;;;9.45;8.55;;;15.70;52.10;;;;;;5053688;28;20040;-62
2022/05/06 06:41:01;;;;;;;10.60;9.50;;;15.80;52.20;;;;;;5052226;28;20040;-62
2022/05/06 06:43:26;;;;;;;9.63;8.73;;;15.80;52.50;;;;;;5068157;28;20025;-62
2022/05/06 06:45:53;;;;;;;10.43;9.32;;;15.90;53.20;;;;;;5053057;28;20045;-62
2022/05/06 06:48:18;;;;;;;9.55;8.35;;;15.90;53.60;;;;;;5052503;28;20033;-61
2022/05/06 06:50:44;;;;;;;11.38;10.18;;;15.80;53.20;;;;;;5044247;28;20025;-62
2022/05/06 06:53:10;;;;;;;15.38;10.60;;;15.90;53.80;;;;;;5051611;28;20036;-62
2022/05/06 06:55:36;;;;;;;12.63;10.48;;;15.80;53.90;;;;;;5048201;28;20044;-62
2022/05/06 06:58:02;;;;;;;12.95;10.30;;;15.90;53.60;;;;;;5051176;28;20032;-62
2022/05/06 07:00:28;;;;;;;11.43;10.25;;;15.90;54.40;;;;;;5051350;28;20079;-61
2022/05/06 07:02:56;;;;;;;11.43;9.85;;;15.90;54.80;;;;;;5053241;28;20059;-62
2022/05/06 07:05:22;;;;;;;11.90;10.63;;;15.90;54.80;;;;;;5049662;28;20081;-62
2022/05/06 07:13:17;;;;;;;18.65;12.73;;;15.60;67.60;;;;;;5047769;28;21544;-61
2022/05/06 07:15:43;;;;;;;15.38;12.23;;;15.60;67.90;;;;;;5051138;28;20041;-62
2022/05/06 07:18:09;;;;;;;13.38;11.93;;;15.60;66.40;;;;;;5053625;28;20467;-62
2022/05/06 07:20:35;;;;;;;19.50;12.75;;;15.50;67.50;;;;;;5067866;28;20029;-62
2022/05/06 07:23:01;;;;;;;13.75;11.50;;;15.50;67.80;;;;;;5041025;28;20087;-62
2022/05/06 07:25:27;;;;;;;13.70;11.73;;;15.40;67.30;;;;;;5046765;28;20036;-62
2022/05/06 07:27:52;;;;;;;15.82;11.55;;;15.60;67.50;;;;;;5053448;28;20021;-62
2022/05/06 07:30:18;;;;;;;12.90;10.88;;;15.60;66.10;;;;;;5052356;28;20035;-54
2022/05/06 07:32:44;;;;;;;11.95;10.48;;;15.70;65.20;;;;;;5051865;28;20029;-52
2022/05/06 07:35:10;;;;;;;15.95;10.80;;;15.50;66.30;;;;;;5058560;28;20120;-54
2022/05/06 07:37:36;;;;;;;15.05;12.05;;;15.40;66.10;;;;;;5048739;28;20044;-50
2022/05/06 07:40:04;;;;;;;16.25;12.95;;;15.40;65.80;;;;;;5050432;28;20367;-63
2022/05/06 07:42:30;;;;;;;16.45;13.38;;;15.50;65.90;;;;;;5052433;28;20020;-63
2022/05/06 07:44:59;;;;;;;18.67;13.43;;;15.60;65.60;;;;;;5051442;28;20542;-63
2022/05/06 07:47:25;;;;;;;14.85;13.02;;;15.70;64.60;;;;;;5049735;28;20510;-63
2022/05/06 07:49:51;;;;;;;19.20;12.65;;;15.60;63.20;;;;;;5051563;28;20055;-63
2022/05/06 07:52:17;;;;;;;16.75;14.32;;;15.60;64.30;;;;;;5051119;28;20063;-64
2022/05/06 07:54:43;;;;;;;16.52;14.23;;;15.70;64.50;;;;;;5050130;28;20043;-64
2022/05/06 07:57:08;;;;;;;21.65;14.23;;;15.70;65.20;;;;;;5044790;28;20032;-64
2022/05/06 07:59:34;;;;;;;21.38;15.55;;;15.60;63.40;;;;;;5052450;28;20099;-64
2022/05/06 08:04:48;;;;;;;15.23;13.63;;;15.70;64.50;;;;;;5052750;28;20056;-64
2022/05/06 08:07:14;;;;;;;17.70;14.23;;;15.80;63.60;;;;;;5051715;28;20025;-64
2022/05/06 08:09:40;;;;;;;18.27;15.40;;;15.80;62.60;;;;;;5052788;28;20033;-64
2022/05/06 08:12:06;;;;;;;18.40;14.98;;;15.90;62.10;;;;;;5042867;28;20108;-61
2022/05/06 08:14:32;;;;;;;18.42;14.23;;;15.90;61.80;;;;;;5032768;28;20084;-62
2022/05/06 08:16:59;;;;;;;18.08;14.00;;;15.80;62.00;;;;;;5047854;28;20029;-62
2022/05/06 08:19:25;;;;;;;18.08;13.50;;;15.90;62.10;;;;;;5052269;28;20116;-62
2022/05/06 08:21:51;;;;;;;13.20;11.40;;;15.90;61.40;;;;;;5050423;28;20116;-62
2022/05/06 08:24:18;;;;;;;12.43;11.13;;;16.00;61.40;;;;;;5067686;28;20456;-62
2022/05/06 08:26:44;;;;;;;16.65;11.63;;;16.00;60.10;;;;;;5051358;28;20139;-62
2022/05/06 08:29:10;;;;;;;17.35;12.60;;;16.00;60.30;;;;;;5051175;28;20086;-62
2022/05/06 08:31:37;;;;;;;10.77;9.38;;;16.10;59.70;;;;;;5049102;28;20448;-62
2022/05/06 08:34:07;;;;;;;12.63;10.15;;;16.00;57.60;;;;;;5049768;28;20025;-62
2022/05/06 08:36:34;;;;;;;10.18;9.05;;;16.00;59.00;;;;;;5064625;28;20051;-62
2022/05/06 08:38:59;;;;;;;11.32;10.25;;;15.90;58.20;;;;;;5050404;28;20052;-61
2022/05/06 08:41:26;;;;;;;11.40;10.20;;;16.00;58.90;;;;;;5050095;28;20466;-62
2022/05/06 08:43:52;;;;;;;10.90;9.85;;;16.10;58.80;;;;;;5050867;28;20025;-62
2022/05/06 08:52:06;;;;;;;9.50;7.90;;;16.10;57.60;;;;;;5049192;28;20119;-62
2022/05/06 08:54:32;;;;;;;9.00;8.15;;;16.10;57.00;;;;;;5048738;28;20118;-62
2022/05/06 08:56:59;;;;;;;8.93;8.10;;;16.10;57.10;;;;;;5041166;28;20483;-62
2022/05/06 08:59:24;;;;;;;8.88;7.95;;;16.10;58.80;;;;;;5050808;28;20037;-62
2022/05/06 09:01:50;;;;;;;10.85;8.63;;;16.00;85.20;;;;;;5050564;28;20111;-62
2022/05/06 09:04:16;;;;;;;9.70;8.70;;;16.00;67.30;;;;;;5051562;28;20041;-62
2022/05/06 09:06:44;;;;;;;11.52;10.32;;;16.00;61.10;;;;;;5050361;28;20552;-63
2022/05/06 09:09:17;;;;;;;13.57;12.10;;;15.90;58.70;;;;;;5051576;28;20428;-63
2022/05/06 09:17:22;;;;;;;13.43;11.65;;;16.00;57.70;;;;;;5051219;28;20035;-61
2022/05/06 09:19:48;;;;;;;13.52;11.25;;;16.10;55.60;;;;;;5050657;28;20025;-61
2022/05/06 09:22:14;;;;;;;15.23;13.73;;;16.10;57.80;;;;;;5049679;28;20388;-61
2022/05/06 09:24:47;;;;;;;16.08;14.38;;;16.20;56.90;;;;;;5051454;28;20028;-61
2022/05/06 09:27:21;;;;;;;17.70;15.90;;;16.20;56.20;;;;;;5048906;28;20747;-62
2022/05/06 09:29:51;;;;;;;14.77;13.27;;;16.30;56.60;;;;;;5051013;28;20143;-62
2022/05/06 09:32:27;;;;;;;14.63;13.20;;;16.10;69.50;;;;;;5050349;28;20143;-62
2022/05/06 09:34:57;;;;;;;15.30;13.75;;;16.00;73.30;;;;;;5050342;28;20051;-62
2022/05/06 09:37:29;;;;;;;16.13;14.52;;;16.00;72.50;;;;;;5049775;28;20116;-62
2022/05/06 09:40:10;;;;;;;14.70;12.93;;;16.00;75.10;;;;;;5052372;28;20482;-62
2022/05/06 09:42:41;;;;;;;15.93;14.27;;;16.00;72.00;;;;;;5052812;28;20033;-62
2022/05/06 09:45:09;;;;;;;15.32;13.75;;;15.90;75.30;;;;;;5053174;28;20032;-62
2022/05/06 09:47:35;;;;;;;14.30;12.88;;;16.00;75.40;;;;;;5048546;28;20067;-62
2022/05/06 09:50:05;;;;;;;15.07;13.32;;;16.00;78.50;;;;;;5055579;28;20033;-62
2022/05/06 09:52:31;;;;;;;14.32;12.88;;;16.00;84.60;;;;;;5054053;28;20417;-62
2022/05/06 09:54:57;;;;;;;15.48;13.88;;;16.10;81.50;;;;;;5054283;28;20045;-62
2022/05/06 09:57:23;;;;;;;12.68;11.38;;;16.10;77.50;;;;;;5053965;28;20057;-62
2022/05/06 09:59:50;;;;;;;15.05;13.07;;;16.20;71.10;;;;;;5055088;28;20104;-63
2022/05/06 10:02:17;;;;;;;14.20;12.80;;;16.30;63.30;;;;;;5054751;28;20358;-62
2022/05/06 10:04:43;;;;;;;14.70;12.32;;;16.30;62.90;;;;;;5070885;28;20398;-62
2022/05/06 10:07:14;;;;;;;14.23;12.77;;;16.40;61.70;;;;;;5051825;28;20044;-62
2022/05/06 10:10:05;;;;;;;12.75;11.50;;;16.40;61.40;;;;;;5054014;28;20497;-62
2022/05/06 10:12:40;;;;;;;11.98;10.82;;;16.40;60.00;;;;;;5054913;28;20070;-62
2022/05/06 10:15:08;;;;;;;11.75;10.55;;;16.40;60.40;;;;;;5055516;28;20033;-62
2022/05/06 10:17:53;;;;;;;10.93;9.93;;;16.50;60.00;;;;;;5053745;28;20025;-62
2022/05/06 10:20:41;;;;;;;12.15;10.95;;;16.40;58.20;;;;;;5055468;28;20052;-62
2022/05/06 10:23:09;;;;;;;12.95;10.60;;;16.50;57.20;;;;;;5049984;28;20096;-62
2022/05/06 10:26:01;;;;;;;11.85;10.75;;;16.40;59.10;;;;;;5052578;28;20455;-62
2022/05/06 10:34:14;;;;;;;9.80;8.90;;;16.50;59.30;;;;;;5035276;28;20041;-62
2022/05/06 10:36:42;;;;;;;11.13;10.07;;;16.50;58.90;;;;;;5045941;28;20165;-62
2022/05/06 10:39:32;;;;;;;12.15;10.98;;;16.60;59.80;;;;;;5039477;28;20080;-62
2022/05/06 10:42:18;;;;;;;11.43;9.05;;;16.60;56.80;;;;;;5046404;28;20080;-61
2022/05/06 10:44:50;;;;;;;8.38;7.68;;;16.60;55.60;;;;;;5054812;28;20029;-62
2022/05/06 10:47:16;;;;;;;9.80;8.90;;;16.60;55.40;;;;;;5051301;28;20052;-62
2022/05/06 10:49:43;;;;;;;9.10;8.20;;;16.60;59.20;;;;;;5052805;28;20039;-62
2022/05/06 10:52:23;;;;;;;9.50;8.68;;;16.60;59.20;;;;;;5052418;28;20101;-61
2022/05/06 10:54:54;;;;;;;9.68;8.73;;;16.70;56.80;;;;;;5051918;28;20029;-61
2022/05/06 10:57:28;;;;;;;7.82;7.20;;;16.70;55.30;;;;;;5052656;28;20043;-62
2022/05/06 11:00:03;;;;;;;9.65;8.73;;;16.60;56.10;;;;;;5053271;28;20052;-61
2022/05/06 11:02:33;;;;;;;7.78;7.07;;;16.60;55.40;;;;;;5052467;28;20036;-61
2022/05/06 11:05:01;;;;;;;9.80;8.90;;;16.60;99.90;;;;;;5053132;28;20094;-61
2022/05/06 11:07:29;;;;;;;9.45;7.38;;;16.70;99.90;;;;;;5051624;28;20037;-62
2022/05/06 11:09:56;;;;;;;8.63;7.50;;;16.50;85.40;;;;;;5053281;28;20021;-62
2022/05/06 11:12:36;;;;;;;8.60;7.80;;;16.50;62.10;;;;;;5051846;28;20082;-62
2022/05/06 11:15:04;;;;;;;11.23;9.73;;;16.60;57.50;;;;;;5052394;28;20137;-62
2022/05/06 11:17:33;;;;;;;11.93;9.93;;;16.70;57.00;;;;;;5051938;28;20021;-62
2022/05/06 11:20:19;;;;;;;11.50;10.30;;;16.80;56.30;;;;;;5066708;28;20390;-62
2022/05/06 11:22:51;;;;;;;12.43;11.13;;;16.80;51.70;;;;;;5046035;28;20051;-62
2022/05/06 11:25:17;;;;;;;12.40;11.18;;;16.80;53.70;;;;;;5051330;28;20575;-62
2022/05/06 11:27:42;;;;;;;12.77;10.20;;;16.90;55.40;;;;;;5049743;28;20017;-62
2022/05/06 11:30:16;;;;;;;10.82;9.73;;;16.80;55.10;;;;;;5051480;28;20037;-62
2022/05/06 11:32:50;;;;;;;11.15;10.05;;;16.90;54.90;;;;;;5050384;28;20017;-62
2022/05/06 11:35:21;;;;;;;16.05;14.50;;;16.90;55.00;;;;;;5048606;28;20045;-62
2022/05/06 11:37:48;;;;;;;12.50;11.20;;;16.80;53.80;;;;;;5048838;28;20044;-62
2022/05/06 11:40:42;;;;;;;10.75;9.68;;;16.90;55.00;;;;;;5050553;28;20565;-62
2022/05/06 11:43:19;;;;;;;14.65;11.32;;;16.90;52.20;;;;;;5043494;28;20080;-62
2022/05/06 11:48:47;;;;;;;11.63;10.52;;;16.80;52.80;;;;;;5048331;28;20507;-62
2022/05/06 11:51:30;;;;;;;11.43;10.30;;;16.80;52.80;;;;;;5050619;28;20056;-62
2022/05/06 11:53:57;;;;;;;11.90;10.48;;;16.80;51.40;;;;;;5049425;28;20067;-62
2022/05/06 11:56:28;;;;;;;11.70;10.50;;;16.80;56.40;;;;;;5051500;28;20041;-64
2022/05/06 11:58:58;;;;;;;12.82;11.52;;;16.80;54.90;;;;;;5046389;28;20039;-62
2022/05/06 12:01:31;;;;;;;14.50;12.88;;;16.80;53.90;;;;;;5049845;28;20039;-61
2022/05/06 12:04:04;;;;;;;12.80;11.57;;;16.80;53.90;;;;;;5065081;28;20474;-62
2022/05/06 12:06:32;;;;;;;12.18;10.88;;;16.80;53.20;;;;;;5050616;28;20116;-62
2022/05/06 12:09:14;;;;;;;14.48;12.10;;;16.80;54.40;;;;;;5047340;28;20025;-62
2022/05/06 12:11:42;;;;;;;11.35;9.68;;;16.20;54.80;;;;;;5045390;28;20033;-62
2022/05/06 12:14:10;;;;;;;11.32;10.02;;;16.10;58.60;;;;;;5051923;28;20021;-61
2022/05/06 12:16:36;;;;;;;11.02;9.93;;;15.90;56.60;;;;;;5050047;28;20040;-61
2022/05/06 12:19:02;;;;;;;13.02;11.73;;;15.50;55.80;;;;;;5043988;28;20078;-62
2022/05/06 12:21:28;;;;;;;11.73;10.52;;;15.20;56.70;;;;;;5049542;28;20036;-62
2022/05/06 12:23:59;;;;;;;11.90;10.55;;;15.30;58.50;;;;;;5047889;28;20025;-62
2022/05/06 12:26:26;;;;;;;13.25;11.88;;;15.90;58.40;;;;;;5044382;28;20043;-62
2022/05/06 12:28:52;;;;;;;12.57;11.27;;;15.90;57.50;;;;;;5045238;28;20115;-62
2022/05/06 12:31:29;;;;;;;11.90;10.70;;;15.50;59.60;;;;;;5062359;28;20459;-62
2022/05/06 12:34:07;;;;;;;11.60;10.40;;;15.50;55.70;;;;;;5044370;28;20810;-62
2022/05/06 12:36:37;;;;;;;12.57;11.27;;;15.50;58.30;;;;;;5047529;28;20028;-62
2022/05/06 12:39:17;;;;;;;13.20;11.95;;;15.90;60.70;;;;;;5049578;28;20122;-63
2022/05/06 12:41:43;;;;;;;12.18;10.90;;;16.20;61.10;;;;;;5048090;28;20025;-61
2022/05/06 12:44:19;;;;;;;12.55;11.25;;;15.70;58.10;;;;;;5048736;28;20043;-62
2022/05/06 12:46:46;;;;;;;12.65;11.35;;;15.40;58.00;;;;;;5048858;28;20506;-64
2022/05/06 12:51:57;;;;;;;14.57;12.93;;;14.90;59.30;;;;;;5045142;28;20044;-63
2022/05/06 12:54:23;;;;;;;14.68;13.05;;;15.30;64.50;;;;;;5044844;28;20044;-62
2022/05/06 12:56:49;;;;;;;14.27;12.93;;;15.80;61.40;;;;;;5049063;28;20060;-62
2022/05/06 12:59:16;;;;;;;14.43;13.05;;;15.70;61.60;;;;;;5048661;28;20020;-61
2022/05/06 13:01:42;;;;;;;13.30;11.73;;;15.30;63.10;;;;;;5061523;28;20124;-61
2022/05/06 13:04:08;;;;;;;15.35;13.85;;;14.90;62.00;;;;;;5045179;28;20036;-61
2022/05/06 13:06:34;;;;;;;16.90;15.23;;;14.90;65.20;;;;;;5049568;28;20366;-62
2022/05/06 13:09:00;;;;;;;17.05;13.68;;;15.50;64.80;;;;;;5047033;28;20104;-61
2022/05/06 13:11:26;;;;;;;16.80;15.10;;;15.50;63.10;;;;;;5048650;28;20029;-62
2022/05/06 13:13:52;;;;;;;18.05;16.15;;;15.70;64.60;;;;;;5048838;28;20036;-63
2022/05/06 13:16:18;;;;;;;17.30;15.40;;;15.80;64.50;;;;;;5048010;28;20555;-61
2022/05/06 13:18:43;;;;;;;19.08;17.08;;;15.90;64.80;;;;;;5047627;28;20029;-62
2022/05/06 13:21:10;;;;;;;20.75;16.58;;;16.00;64.60;;;;;;5049309;28;20039;-62
2022/05/06 13:23:35;;;;;;;18.20;16.40;;;16.00;65.30;;;;;;5048789;28;20376;-62
2022/05/06 13:26:02;;;;;;;19.20;17.30;;;15.90;71.10;;;;;;5050890;28;20025;-63
2022/05/06 13:28:28;;;;;;;17.95;16.15;;;15.90;71.50;;;;;;5050121;28;20021;-61